createdAt,value
2018-11-29T00:00:40.713Z,101217.08
2018-11-29T00:03:10.680Z,101209.27
2018-11-29T00:05:39.550Z,101217.63
2018-11-29T00:08:08.134Z,101218.70
2018-11-29T00:10:36.993Z,101214.38
2018-11-29T00:13:05.848Z,101215.44
2018-11-29T00:15:34.712Z,101211.16
2018-11-29T00:18:03.530Z,101223.80
2018-11-29T00:20:32.706Z,101226.49
2018-11-29T00:23:01.229Z,101225.69
2018-11-29T00:25:36.026Z,101236.19
2018-11-29T00:28:04.573Z,101235.08
2018-11-29T00:30:33.106Z,101239.67
2018-11-29T00:33:01.643Z,101232.93
2018-11-29T00:35:30.298Z,101231.02
2018-11-29T00:37:58.828Z,101228.32
2018-11-29T00:40:27.378Z,101224.55
2018-11-29T00:42:56.018Z,101215.67
2018-11-29T00:45:24.870Z,101230.73
2018-11-29T00:47:54.308Z,101230.73
2018-11-29T00:50:22.874Z,101218.36
2018-11-29T00:52:52.055Z,101212.94
2018-11-29T00:55:25.659Z,101211.86
2018-11-29T00:57:54.530Z,101214.84
2018-11-29T01:00:24.961Z,101204.61
2018-11-29T01:02:53.668Z,101211.34
2018-11-29T01:05:22.292Z,101205.96
2018-11-29T01:07:50.913Z,101204.88
2018-11-29T01:10:20.011Z,101205.95
2018-11-29T01:12:49.094Z,101201.64
2018-11-29T01:15:19.984Z,101213.77
2018-11-29T01:17:49.382Z,101203.27
2018-11-29T01:20:18.806Z,101201.93
2018-11-29T01:22:47.501Z,101202.21
2018-11-29T01:25:16.403Z,101198.96
2018-11-29T01:27:46.301Z,101199.50
2018-11-29T01:30:17.185Z,101205.41
2018-11-29T01:32:45.719Z,101197.88
2018-11-29T01:35:15.329Z,101201.64
2018-11-29T01:37:43.977Z,101199.49
2018-11-29T01:40:17.234Z,101201.08
2018-11-29T01:42:47.620Z,101213.48
2018-11-29T01:45:16.174Z,101207.00
2018-11-29T01:47:44.721Z,101205.66
2018-11-29T01:50:13.287Z,101195.39
2018-11-29T01:52:41.837Z,101194.59
2018-11-29T01:55:10.640Z,101193.23
2018-11-29T01:57:39.240Z,101199.42
2018-11-29T02:00:17.104Z,101206.16
2018-11-29T02:02:47.848Z,101200.77
2018-11-29T02:05:16.426Z,101209.12
2018-11-29T02:07:44.963Z,101216.14
2018-11-29T02:10:19.788Z,101215.57
2018-11-29T02:12:48.298Z,101220.69
2018-11-29T02:15:16.869Z,101212.59
2018-11-29T02:17:45.423Z,101215.02
2018-11-29T02:20:19.099Z,101221.23
2018-11-29T02:22:48.282Z,101220.16
2018-11-29T02:25:16.937Z,101210.17
2018-11-29T02:27:45.485Z,101200.19
2018-11-29T02:30:17.595Z,101197.48
2018-11-29T02:32:46.348Z,101201.00
2018-11-29T02:35:14.968Z,101193.15
2018-11-29T02:37:43.521Z,101191.27
2018-11-29T02:40:14.009Z,101188.86
2018-11-29T02:42:42.902Z,101191.79
2018-11-29T02:45:13.754Z,101186.95
2018-11-29T02:47:42.344Z,101179.40
2018-11-29T02:50:11.668Z,101178.84
2018-11-29T02:52:40.284Z,101176.66
2018-11-29T02:55:10.065Z,101172.61
2018-11-29T02:57:38.755Z,101179.36
2018-11-29T03:00:16.859Z,101175.30
2018-11-29T03:02:45.389Z,101177.19
2018-11-29T03:05:14.141Z,101169.89
2018-11-29T03:07:42.809Z,101164.77
2018-11-29T03:10:13.374Z,101158.58
2018-11-29T03:12:42.297Z,101154.77
2018-11-29T03:15:12.044Z,101148.59
2018-11-29T03:17:40.696Z,101156.69
2018-11-29T03:20:12.318Z,101147.25
2018-11-29T03:22:40.924Z,101151.00
2018-11-29T03:25:15.484Z,101149.36
2018-11-29T03:27:44.351Z,101149.63
2018-11-29T03:30:14.804Z,101156.09
2018-11-29T03:32:43.436Z,101157.20
2018-11-29T03:35:12.845Z,101155.84
2018-11-29T03:37:41.480Z,101159.33
2018-11-29T03:40:11.503Z,101164.16
2018-11-29T03:42:40.326Z,101154.45
2018-11-29T03:45:11.012Z,101164.16
2018-11-29T03:47:39.975Z,101165.23
2018-11-29T03:50:13.062Z,101165.23
2018-11-29T03:52:41.678Z,101161.18
2018-11-29T03:55:10.980Z,101163.88
2018-11-29T03:57:40.434Z,101164.70
2018-11-29T04:00:14.994Z,101164.42
2018-11-29T04:02:43.834Z,101162.23
2018-11-29T04:05:12.612Z,101160.64
2018-11-29T04:07:41.369Z,101160.09
2018-11-29T04:10:12.060Z,101151.73
2018-11-29T04:12:40.692Z,101155.48
2018-11-29T04:15:11.388Z,101145.52
2018-11-29T04:17:40.935Z,101148.20
2018-11-29T04:20:10.699Z,101148.20
2018-11-29T04:22:39.286Z,101148.20
2018-11-29T04:25:09.594Z,101141.17
2018-11-29T04:27:38.207Z,101138.73
2018-11-29T04:30:09.345Z,101146.55
2018-11-29T04:32:37.903Z,101137.09
2018-11-29T04:35:08.221Z,101141.64
2018-11-29T04:37:36.837Z,101133.31
2018-11-29T04:40:06.209Z,101132.47
2018-11-29T04:42:34.824Z,101132.75
2018-11-29T04:45:03.415Z,101131.67
2018-11-29T04:47:32.102Z,101134.07
2018-11-29T04:50:00.664Z,101137.84
2018-11-29T04:52:29.323Z,101136.21
2018-11-29T04:54:58.014Z,101133.78
2018-11-29T04:57:26.661Z,101132.70
2018-11-29T04:59:55.249Z,101133.21
2018-11-29T05:02:23.888Z,101130.02
2018-11-29T05:04:52.445Z,101124.60
2018-11-29T05:07:20.970Z,101129.98
2018-11-29T05:09:49.609Z,101130.78
2018-11-29T05:12:18.166Z,101122.97
2018-11-29T05:14:46.932Z,101127.27
2018-11-29T05:17:15.482Z,101118.90
2018-11-29T05:19:44.185Z,101114.84
2018-11-29T05:22:12.888Z,101116.97
2018-11-29T05:24:41.417Z,101121.00
2018-11-29T05:27:10.166Z,101117.23
2018-11-29T05:29:38.763Z,101117.75
2018-11-29T05:32:07.341Z,101120.72
2018-11-29T05:34:36.007Z,101119.36
2018-11-29T05:37:04.739Z,101110.74
2018-11-29T05:39:33.323Z,101111.27
2018-11-29T05:42:01.872Z,101105.29
2018-11-29T05:44:30.637Z,101115.30
2018-11-29T05:46:59.219Z,101111.23
2018-11-29T05:49:28.063Z,101118.52
2018-11-29T05:51:56.670Z,101114.70
2018-11-29T05:54:31.778Z,101108.48
2018-11-29T05:57:00.375Z,101102.81
2018-11-29T05:59:28.978Z,101105.78
2018-11-29T06:01:57.657Z,101096.89
2018-11-29T06:04:26.210Z,101101.45
2018-11-29T06:06:54.847Z,101095.25
2018-11-29T06:09:23.444Z,101094.96
2018-11-29T06:11:52.168Z,101086.30
2018-11-29T06:14:20.751Z,101086.81
2018-11-29T06:16:49.304Z,101093.80
2018-11-29T06:19:17.896Z,101087.87
2018-11-29T06:21:46.513Z,101090.55
2018-11-29T06:24:15.038Z,101097.02
2018-11-29T06:26:43.669Z,101090.27
2018-11-29T06:29:12.303Z,101097.00
2018-11-29T06:31:40.927Z,101102.38
2018-11-29T06:34:09.512Z,101095.89
2018-11-29T06:36:38.138Z,101102.88
2018-11-29T06:39:09.169Z,101093.69
2018-11-29T06:41:37.767Z,101104.77
2018-11-29T06:44:06.514Z,101095.87
2018-11-29T06:46:35.165Z,101092.02
2018-11-29T06:49:03.778Z,101088.77
2018-11-29T06:51:32.439Z,101083.10
2018-11-29T06:54:01.026Z,101076.62
2018-11-29T06:56:29.621Z,101080.11
2018-11-29T06:58:58.257Z,101076.06
2018-11-29T07:01:26.961Z,101078.78
2018-11-29T07:03:55.494Z,101074.17
2018-11-29T07:06:24.034Z,101073.91
2018-11-29T07:08:52.804Z,101065.55
2018-11-29T07:11:21.381Z,101064.22
2018-11-29T07:13:49.964Z,101063.37
2018-11-29T07:16:18.654Z,101061.81
2018-11-29T07:18:47.238Z,101060.96
2018-11-29T07:21:26.946Z,101060.17
2018-11-29T07:23:55.987Z,101057.76
2018-11-29T07:26:24.699Z,101063.66
2018-11-29T07:28:53.655Z,101059.61
2018-11-29T07:31:22.217Z,101057.44
2018-11-29T07:33:51.817Z,101054.73
2018-11-29T07:36:20.398Z,101051.77
2018-11-29T07:38:49.009Z,101062.02
2018-11-29T07:41:17.652Z,101059.56
2018-11-29T07:43:46.214Z,101070.09
2018-11-29T07:46:14.875Z,101076.03
2018-11-29T07:48:43.501Z,101070.63
2018-11-29T07:51:12.085Z,101072.77
2018-11-29T07:53:40.703Z,101067.66
2018-11-29T07:56:09.273Z,101078.47
2018-11-29T07:58:38.007Z,101074.70
2018-11-29T08:01:07.346Z,101076.88
2018-11-29T08:03:36.001Z,101079.05
2018-11-29T08:06:04.651Z,101080.38
2018-11-29T08:08:33.216Z,101079.05
2018-11-29T08:11:01.903Z,101082.28
2018-11-29T08:13:31.644Z,101078.17
2018-11-29T08:16:00.447Z,101081.44
2018-11-29T08:18:29.612Z,101073.30
2018-11-29T08:20:58.189Z,101079.03
2018-11-29T08:23:26.753Z,101073.91
2018-11-29T08:25:55.539Z,101065.55
2018-11-29T08:28:24.191Z,101068.77
2018-11-29T08:30:52.866Z,101064.20
2018-11-29T08:33:21.661Z,101065.55
2018-11-29T08:35:50.277Z,101059.06
2018-11-29T08:38:18.864Z,101056.12
2018-11-29T08:40:47.457Z,101056.64
2018-11-29T08:43:16.123Z,101057.97
2018-11-29T08:45:44.641Z,101050.42
2018-11-29T08:48:13.212Z,101051.77
2018-11-29T08:50:41.953Z,101056.36
2018-11-29T08:53:10.579Z,101052.33
2018-11-29T08:55:39.129Z,101044.46
2018-11-29T08:58:07.719Z,101053.66
2018-11-29T09:00:36.281Z,101049.02
2018-11-29T09:03:04.866Z,101047.08
2018-11-29T09:05:34.102Z,101047.61
2018-11-29T09:08:02.641Z,101046.80
2018-11-29T09:10:31.771Z,101051.64
2018-11-29T09:12:59.840Z,101045.65
2018-11-29T09:15:28.378Z,101040.78
2018-11-29T09:17:57.003Z,101045.92
2018-11-29T09:20:25.814Z,101044.24
2018-11-29T09:22:54.496Z,101042.62
2018-11-29T09:25:23.579Z,101033.17
2018-11-29T09:27:52.212Z,101040.72
2018-11-29T09:30:22.423Z,101039.10
2018-11-29T09:32:52.215Z,101033.70
2018-11-29T09:35:20.821Z,101033.67
2018-11-29T09:37:49.930Z,101036.64
2018-11-29T09:40:19.007Z,101037.72
2018-11-29T09:42:47.770Z,101036.64
2018-11-29T09:45:20.203Z,101033.64
2018-11-29T09:47:50.834Z,101033.87
2018-11-29T09:50:19.595Z,101031.77
2018-11-29T09:52:48.217Z,101032.32
2018-11-29T09:55:17.591Z,101022.86
2018-11-29T09:57:46.885Z,101024.45
2018-11-29T10:00:32.391Z,101021.72
2018-11-29T10:03:06.669Z,101019.25
2018-11-29T10:05:35.281Z,101017.89
2018-11-29T10:08:03.845Z,101016.25
2018-11-29T10:10:32.388Z,101019.98
2018-11-29T10:13:01.085Z,101017.51
2018-11-29T10:15:29.698Z,101013.92
2018-11-29T10:17:58.302Z,101024.99
2018-11-29T10:20:26.900Z,101014.71
2018-11-29T10:22:55.470Z,101016.59
2018-11-29T10:25:24.029Z,101004.39
2018-11-29T10:27:55.341Z,101003.27
2018-11-29T10:30:28.613Z,101003.01
2018-11-29T10:32:57.264Z,101008.09
2018-11-29T10:35:26.179Z,100996.15
2018-11-29T10:37:54.828Z,101003.70
2018-11-29T10:40:23.410Z,100980.45
2018-11-29T10:42:52.127Z,100985.30
2018-11-29T10:45:21.143Z,100992.05
2018-11-29T10:47:52.823Z,100988.76
2018-11-29T10:50:21.047Z,100983.12
2018-11-29T10:52:49.609Z,100986.66
2018-11-29T10:55:19.063Z,100973.16
2018-11-29T10:57:47.645Z,100965.58
2018-11-29T11:00:28.802Z,100959.61
2018-11-29T11:03:04.296Z,100960.17
2018-11-29T11:05:33.116Z,100947.73
2018-11-29T11:08:07.894Z,100953.64
2018-11-29T11:10:30.315Z,100945.53
2018-11-29T11:12:58.857Z,100941.73
2018-11-29T11:15:27.389Z,100937.15
2018-11-29T11:17:56.007Z,100924.16
2018-11-29T11:20:24.603Z,100916.77
2018-11-29T11:22:53.190Z,100900.80
2018-11-29T11:25:21.789Z,100906.96
2018-11-29T11:27:50.331Z,100899.70
2018-11-29T11:30:20.142Z,100909.97
2018-11-29T11:32:52.506Z,100898.62
2018-11-29T11:35:21.057Z,100890.24
2018-11-29T11:37:49.622Z,100884.27
2018-11-29T11:40:18.365Z,100883.44
2018-11-29T11:42:47.375Z,100865.30
2018-11-29T11:45:18.112Z,100863.13
2018-11-29T11:47:46.792Z,100851.73
2018-11-29T11:50:20.544Z,100836.56
2018-11-29T11:52:49.621Z,100838.97
2018-11-29T11:55:19.275Z,100828.88
2018-11-29T11:57:47.456Z,100820.95
2018-11-29T12:00:19.548Z,100816.32
2018-11-29T12:02:49.471Z,100804.94
2018-11-29T12:05:18.021Z,100786.21
2018-11-29T12:07:46.642Z,100778.05
2018-11-29T12:10:15.970Z,100761.00
2018-11-29T12:12:44.669Z,100764.52
2018-11-29T12:15:14.054Z,100751.83
2018-11-29T12:17:43.919Z,100751.53
2018-11-29T12:20:14.836Z,100731.23
2018-11-29T12:22:43.429Z,100760.41
2018-11-29T12:25:13.174Z,100750.13
2018-11-29T12:27:41.717Z,100741.13
2018-11-29T12:30:18.927Z,100736.25
2018-11-29T12:32:47.469Z,100726.73
2018-11-29T12:35:16.395Z,100722.39
2018-11-29T12:37:45.062Z,100715.55
2018-11-29T12:40:14.876Z,100716.11
2018-11-29T12:42:43.389Z,100715.75
2018-11-29T12:45:12.957Z,100724.91
2018-11-29T12:47:41.649Z,100721.06
2018-11-29T12:50:17.447Z,100719.14
2018-11-29T12:52:46.077Z,100728.52
2018-11-29T12:55:15.594Z,100715.55
2018-11-29T12:57:44.437Z,100722.00
2018-11-29T13:00:14.186Z,100729.45
2018-11-29T13:03:00.496Z,100728.10
2018-11-29T13:05:29.368Z,100730.22
2018-11-29T13:07:57.972Z,100726.98
2018-11-29T13:10:27.641Z,100723.46
2018-11-29T13:12:56.293Z,100715.84
2018-11-29T13:15:27.195Z,100698.02
2018-11-29T13:17:56.421Z,100714.34
2018-11-29T13:20:25.013Z,100694.27
2018-11-29T13:22:53.696Z,100701.66
2018-11-29T13:25:23.448Z,100690.52
2018-11-29T13:27:52.070Z,100685.67
2018-11-29T13:30:21.562Z,100682.45
2018-11-29T13:32:52.392Z,100671.37
2018-11-29T13:35:27.465Z,100681.92
2018-11-29T13:38:01.333Z,100663.20
2018-11-29T13:40:29.881Z,100664.86
2018-11-29T13:42:58.791Z,100687.28
2018-11-29T13:45:27.293Z,100678.84
2018-11-29T13:47:55.870Z,100674.79
2018-11-29T13:50:24.572Z,100687.19
2018-11-29T13:52:53.110Z,100677.19
2018-11-29T13:55:21.673Z,100677.72
2018-11-29T13:57:50.793Z,100665.06
2018-11-29T14:00:20.342Z,100649.02
2018-11-29T14:02:53.170Z,100643.08
2018-11-29T14:05:21.747Z,100636.84
2018-11-29T14:07:50.483Z,100633.59
2018-11-29T14:10:21.137Z,100638.73
2018-11-29T14:12:51.861Z,100633.06
2018-11-29T14:15:21.606Z,100622.01
2018-11-29T14:17:50.150Z,100614.08
2018-11-29T14:20:18.710Z,100612.76
2018-11-29T14:22:47.509Z,100608.16
2018-11-29T14:25:17.041Z,100623.55
2018-11-29T14:27:47.295Z,100621.95
2018-11-29T14:30:17.926Z,100618.73
2018-11-29T14:32:46.538Z,100622.54
2018-11-29T14:35:15.121Z,100623.81
2018-11-29T14:37:43.706Z,100621.92
2018-11-29T14:40:16.536Z,100614.93
2018-11-29T14:42:45.110Z,100615.46
2018-11-29T14:45:15.038Z,100614.11
2018-11-29T14:47:43.619Z,100616.34
2018-11-29T14:50:18.026Z,100610.62
2018-11-29T14:52:47.025Z,100595.42
2018-11-29T14:55:15.599Z,100603.20
2018-11-29T14:57:44.212Z,100597.98
2018-11-29T15:00:13.431Z,100588.51
2018-11-29T15:02:42.398Z,100585.99
2018-11-29T15:05:28.276Z,100582.19
2018-11-29T15:07:56.940Z,100579.76
2018-11-29T15:10:25.472Z,100575.48
2018-11-29T15:12:54.096Z,100572.20
2018-11-29T15:15:22.728Z,100558.16
2018-11-29T15:17:52.464Z,100545.70
2018-11-29T15:20:22.850Z,100541.58
2018-11-29T15:22:51.425Z,100539.91
2018-11-29T15:25:20.021Z,100528.20
2018-11-29T15:27:48.598Z,100538.72
2018-11-29T15:30:18.372Z,100536.83
2018-11-29T15:32:46.922Z,100533.86
2018-11-29T15:35:15.596Z,100525.43
2018-11-29T15:37:44.317Z,100538.66
2018-11-29T15:40:16.794Z,100537.30
2018-11-29T15:42:52.103Z,100533.02
2018-11-29T15:45:22.877Z,100520.33
2018-11-29T15:47:51.837Z,100510.28
2018-11-29T15:50:20.525Z,100512.93
2018-11-29T15:52:49.183Z,100518.53
2018-11-29T15:55:18.844Z,100515.10
2018-11-29T15:57:48.490Z,100520.67
2018-11-29T16:00:34.012Z,100515.27
2018-11-29T16:03:05.318Z,100521.24
2018-11-29T16:05:33.853Z,100515.27
2018-11-29T16:08:02.435Z,100515.89
2018-11-29T16:10:31.157Z,100508.93
2018-11-29T16:12:59.716Z,100504.87
2018-11-29T16:15:28.292Z,100503.83
2018-11-29T16:17:56.931Z,100500.52
2018-11-29T16:20:28.537Z,100492.09
2018-11-29T16:22:57.152Z,100479.59
2018-11-29T16:25:25.726Z,100494.10
2018-11-29T16:27:54.306Z,100496.02
2018-11-29T16:30:28.315Z,100513.91
2018-11-29T16:32:58.478Z,100515.83
2018-11-29T16:35:27.106Z,100516.70
2018-11-29T16:37:55.697Z,100511.36
2018-11-29T16:40:30.917Z,100512.33
2018-11-29T16:42:59.432Z,100509.31
2018-11-29T16:45:28.034Z,100516.27
2018-11-29T16:47:56.615Z,100516.80
2018-11-29T16:50:25.330Z,100536.33
2018-11-29T16:52:53.921Z,100529.80
2018-11-29T16:55:22.605Z,100536.64
2018-11-29T16:57:53.242Z,100531.45
2018-11-29T17:00:22.429Z,100531.51
2018-11-29T17:02:51.221Z,100528.58
2018-11-29T17:05:20.002Z,100541.80
2018-11-29T17:07:48.572Z,100555.72
2018-11-29T17:10:18.289Z,100548.70
2018-11-29T17:12:49.562Z,100550.48
2018-11-29T17:15:18.953Z,100547.05
2018-11-29T17:17:47.573Z,100546.07
2018-11-29T17:20:17.999Z,100550.73
2018-11-29T17:22:46.596Z,100553.38
2018-11-29T17:25:15.234Z,100546.69
2018-11-29T17:27:43.808Z,100543.38
2018-11-29T17:30:22.129Z,100559.93
2018-11-29T17:32:52.029Z,100564.05
2018-11-29T17:35:20.634Z,100574.36
2018-11-29T17:37:49.386Z,100576.91
2018-11-29T17:40:18.985Z,100576.45
2018-11-29T17:42:47.554Z,100577.33
2018-11-29T17:45:18.414Z,100581.19
2018-11-29T17:47:47.273Z,100574.17
2018-11-29T17:50:21.124Z,100580.25
2018-11-29T17:52:49.674Z,100577.91
2018-11-29T17:55:18.691Z,100584.16
2018-11-29T17:57:47.228Z,100573.96
2018-11-29T18:00:21.889Z,100575.31
2018-11-29T18:02:50.460Z,100574.58
2018-11-29T18:05:19.061Z,100580.05
2018-11-29T18:07:47.622Z,100575.98
2018-11-29T18:10:18.697Z,100583.28
2018-11-29T18:12:49.685Z,100585.77
2018-11-29T18:15:21.659Z,100590.23
2018-11-29T18:17:50.251Z,100606.63
2018-11-29T18:20:18.802Z,100605.02
2018-11-29T18:22:47.343Z,100607.63
2018-11-29T18:25:16.496Z,100600.86
2018-11-29T18:27:50.409Z,100601.42
2018-11-29T18:30:20.218Z,100598.16
2018-11-29T18:32:48.765Z,100608.19
2018-11-29T18:35:17.303Z,100593.56
2018-11-29T18:37:45.927Z,100595.17
2018-11-29T18:40:17.648Z,100604.50
2018-11-29T18:42:47.337Z,100602.11
2018-11-29T18:45:17.688Z,100601.02
2018-11-29T18:47:48.283Z,100600.75
2018-11-29T18:51:22.951Z,100601.52
2018-11-29T18:53:51.530Z,100599.35
2018-11-29T18:56:20.176Z,100604.77
2018-11-29T18:58:48.860Z,100601.02
2018-11-29T19:01:17.406Z,100595.55
2018-11-29T19:03:45.924Z,100603.10
2018-11-29T19:06:14.611Z,100603.92
2018-11-29T19:08:43.182Z,100607.16
2018-11-29T19:11:11.782Z,100609.50
2018-11-29T19:13:40.301Z,100612.77
2018-11-29T19:16:08.982Z,100607.92
2018-11-29T19:18:37.559Z,100607.62
2018-11-29T19:21:06.516Z,100610.32
2018-11-29T19:23:35.285Z,100606.21
2018-11-29T19:26:03.741Z,100603.50
2018-11-29T19:28:32.381Z,100601.59
2018-11-29T19:31:00.916Z,100597.73
2018-11-29T19:33:29.481Z,100607.98
2018-11-29T19:35:58.290Z,100613.14
2018-11-29T19:38:26.990Z,100606.74
2018-11-29T19:40:55.660Z,100610.02
2018-11-29T19:43:24.278Z,100611.42
2018-11-29T19:45:52.897Z,100612.77
2018-11-29T19:48:21.607Z,100613.28
2018-11-29T19:50:50.340Z,100613.81
2018-11-29T19:53:23.388Z,100619.53
2018-11-29T19:55:54.616Z,100613.08
2018-11-29T19:58:23.193Z,100623.08
2018-11-29T20:00:51.732Z,100615.84
2018-11-29T20:03:20.387Z,100616.87
2018-11-29T20:05:49.039Z,100617.39
2018-11-29T20:08:17.616Z,100621.20
2018-11-29T20:10:46.330Z,100625.56
2018-11-29T20:13:15.464Z,100617.98
2018-11-29T20:15:45.905Z,100615.89
2018-11-29T20:18:14.917Z,100598.88
2018-11-29T20:20:43.531Z,100611.27
2018-11-29T20:23:12.767Z,100624.26
2018-11-29T20:25:48.522Z,100622.91
2018-11-29T20:28:17.083Z,100627.02
2018-11-29T20:30:45.684Z,100621.35
2018-11-29T20:33:14.264Z,100602.47
2018-11-29T20:35:42.903Z,100607.57
2018-11-29T20:38:11.413Z,100602.67
2018-11-29T20:40:41.771Z,100613.23
2018-11-29T20:43:10.287Z,100631.38
2018-11-29T20:45:48.153Z,100617.55
2018-11-29T20:48:19.020Z,100626.77
2018-11-29T20:50:47.967Z,100628.31
2018-11-29T20:53:18.736Z,100628.91
2018-11-29T20:55:47.363Z,100629.36
2018-11-29T20:58:15.906Z,100627.50
2018-11-29T21:00:44.568Z,100618.59
2018-11-29T21:03:13.080Z,100617.45
2018-11-29T21:05:42.831Z,100625.78
2018-11-29T21:08:12.074Z,100623.39
2018-11-29T21:10:40.661Z,100624.20
2018-11-29T21:13:09.293Z,100618.23
2018-11-29T21:15:39.216Z,100615.05
2018-11-29T21:18:09.145Z,100614.48
2018-11-29T21:20:37.932Z,100612.03
2018-11-29T21:23:08.233Z,100617.39
2018-11-29T21:25:36.802Z,100621.67
2018-11-29T21:28:06.263Z,100619.84
2018-11-29T21:30:34.852Z,100626.35
2018-11-29T21:33:03.475Z,100624.63
2018-11-29T21:35:32.021Z,100623.84
2018-11-29T21:38:01.224Z,100620.52
2018-11-29T21:40:31.859Z,100614.49
2018-11-29T21:43:00.704Z,100613.40
2018-11-29T21:45:29.478Z,100616.67
2018-11-29T21:47:58.013Z,100617.45
2018-11-29T21:50:26.567Z,100620.98
2018-11-29T21:52:55.116Z,100606.10
2018-11-29T21:55:23.725Z,100616.05
2018-11-29T21:57:52.539Z,100623.07
2018-11-29T22:00:22.088Z,100615.73
2018-11-29T22:02:58.481Z,100622.70
2018-11-29T22:05:27.038Z,100611.15
2018-11-29T22:07:55.584Z,100608.19
2018-11-29T22:10:24.197Z,100610.11
2018-11-29T22:12:52.813Z,100599.56
2018-11-29T22:15:21.430Z,100602.77
2018-11-29T22:18:23.021Z,100604.44
2018-11-29T22:21:01.512Z,100600.07
2018-11-29T22:23:30.493Z,100612.05
2018-11-29T22:26:00.162Z,100610.02
2018-11-29T22:28:29.113Z,100617.88
2018-11-29T22:30:57.642Z,100625.51
2018-11-29T22:33:26.207Z,100615.47
2018-11-29T22:35:54.767Z,100611.67
2018-11-29T22:38:23.362Z,100611.42
2018-11-29T22:40:52.261Z,100609.55
2018-11-29T22:43:20.814Z,100607.41
2018-11-29T22:45:49.438Z,100611.78
2018-11-29T22:48:18.059Z,100608.81
2018-11-29T22:50:46.625Z,100617.80
2018-11-29T22:53:15.197Z,100612.93
2018-11-29T22:55:44.085Z,100609.69
2018-11-29T22:58:12.664Z,100608.70
2018-11-29T23:00:46.760Z,100611.41
2018-11-29T23:03:15.270Z,100597.17
2018-11-29T23:05:44.779Z,100597.78
2018-11-29T23:08:13.407Z,100591.02
2018-11-29T23:10:41.992Z,100595.44
2018-11-29T23:13:10.490Z,100598.93
2018-11-29T23:15:38.996Z,100604.16
2018-11-29T23:18:07.641Z,100607.70
2018-11-29T23:20:36.416Z,100606.41
2018-11-29T23:23:05.022Z,100599.85
2018-11-29T23:25:33.541Z,100603.14
2018-11-29T23:28:02.102Z,100609.90
2018-11-29T23:30:30.620Z,100614.27
2018-11-29T23:32:59.260Z,100609.47
2018-11-29T23:35:27.780Z,100601.41
2018-11-29T23:37:56.302Z,100596.51
2018-11-29T23:40:24.817Z,100596.51
2018-11-29T23:42:53.357Z,100602.50
2018-11-29T23:45:21.876Z,100608.67
2018-11-29T23:47:50.402Z,100607.60
2018-11-29T23:50:19.390Z,100602.76
2018-11-29T23:52:48.032Z,100598.95
2018-11-29T23:55:19.905Z,100603.45
2018-11-29T23:57:48.440Z,100595.28
